createdAt,value
2017-12-14T00:00:34.045Z,12.17
2017-12-14T00:03:01.533Z,10.53
2017-12-14T00:05:29.769Z,11.53
2017-12-14T00:07:57.265Z,9.53
2017-12-14T00:10:37.532Z,19.93
2017-12-14T00:13:05.022Z,16.53
2017-12-14T00:15:32.496Z,13.57
2017-12-14T00:17:59.980Z,14.33
2017-12-14T00:20:28.221Z,9.63
2017-12-14T00:22:55.704Z,8.70
2017-12-14T00:25:23.952Z,8.57
2017-12-14T00:27:51.437Z,9.00
2017-12-14T00:30:19.671Z,13.00
2017-12-14T00:32:47.133Z,7.77
2017-12-14T00:35:14.620Z,10.50
2017-12-14T00:37:42.092Z,14.30
2017-12-14T00:40:09.589Z,11.60
2017-12-14T00:42:37.784Z,11.80
2017-12-14T00:45:05.284Z,10.87
2017-12-14T00:47:33.515Z,22.20
2017-12-14T00:50:00.993Z,27.13
2017-12-14T00:52:28.469Z,16.70
2017-12-14T00:54:56.705Z,12.50
2017-12-14T00:57:24.191Z,13.23
2017-12-14T00:59:52.434Z,7.63
2017-12-14T01:02:19.929Z,11.23
2017-12-14T01:04:48.988Z,12.43
2017-12-14T01:07:16.471Z,11.40
2017-12-14T01:09:44.716Z,13.67
2017-12-14T01:12:12.180Z,11.83
2017-12-14T01:14:39.652Z,8.03
2017-12-14T01:17:07.890Z,10.93
2017-12-14T01:19:35.382Z,12.50
2017-12-14T01:22:02.838Z,11.23
2017-12-14T01:24:31.066Z,9.03
2017-12-14T01:26:58.556Z,8.17
2017-12-14T01:29:26.026Z,8.53
2017-12-14T01:31:54.274Z,14.50
2017-12-14T01:34:21.731Z,15.43
2017-12-14T01:36:49.203Z,6.53
2017-12-14T01:39:16.662Z,13.70
2017-12-14T01:41:44.143Z,12.00
2017-12-14T01:44:12.631Z,5.93
2017-12-14T01:46:40.846Z,6.70
2017-12-14T01:49:08.319Z,13.27
2017-12-14T01:51:35.779Z,10.70
2017-12-14T01:54:03.235Z,5.37
2017-12-14T01:56:30.701Z,8.57
2017-12-14T01:58:58.160Z,7.50
2017-12-14T02:01:25.627Z,8.90
2017-12-14T02:03:53.861Z,7.03
2017-12-14T02:06:21.334Z,8.50
2017-12-14T02:08:48.805Z,4.37
2017-12-14T02:11:17.026Z,7.43
2017-12-14T02:13:44.527Z,7.70
2017-12-14T02:16:11.995Z,10.07
2017-12-14T02:18:40.238Z,5.40
2017-12-14T02:21:07.698Z,5.23
2017-12-14T02:23:35.164Z,9.07
2017-12-14T02:26:02.626Z,7.00
2017-12-14T02:28:30.099Z,4.30
2017-12-14T02:30:58.356Z,7.47
2017-12-14T02:33:26.413Z,3.90
2017-12-14T02:35:53.883Z,5.67
2017-12-14T02:38:21.339Z,2.70
2017-12-14T02:40:48.815Z,2.83
2017-12-14T02:43:17.042Z,4.10
2017-12-14T02:45:44.518Z,10.60
2017-12-14T02:48:11.988Z,5.27
2017-12-14T02:50:39.454Z,1.87
2017-12-14T02:53:06.917Z,5.17
2017-12-14T02:55:35.147Z,3.07
2017-12-14T02:58:02.626Z,1.33
2017-12-14T03:00:30.102Z,1.37
2017-12-14T03:02:58.331Z,2.40
2017-12-14T03:05:25.798Z,1.97
2017-12-14T03:07:53.258Z,1.67
2017-12-14T03:10:20.735Z,3.53
2017-12-14T03:12:48.201Z,5.60
2017-12-14T03:15:17.912Z,2.17
2017-12-14T03:17:46.127Z,3.57
2017-12-14T03:20:13.590Z,4.33
2017-12-14T03:22:41.062Z,2.87
2017-12-14T03:25:08.559Z,2.53
2017-12-14T03:27:36.023Z,3.33
2017-12-14T03:30:04.247Z,3.50
2017-12-14T03:32:31.702Z,3.50
2017-12-14T03:34:59.182Z,2.60
2017-12-14T03:37:26.643Z,12.53
2017-12-14T03:39:54.098Z,5.30
2017-12-14T03:42:21.567Z,4.37
2017-12-14T03:44:49.811Z,6.30
2017-12-14T03:47:17.298Z,8.10
2017-12-14T03:49:45.542Z,5.70
2017-12-14T03:52:12.999Z,9.37
2017-12-14T03:54:40.524Z,7.17
2017-12-14T03:57:07.946Z,7.40
2017-12-14T03:59:36.178Z,6.50
2017-12-14T04:02:03.655Z,8.00
2017-12-14T04:04:31.903Z,12.83
2017-12-14T04:06:59.378Z,7.70
2017-12-14T04:09:26.835Z,7.93
2017-12-14T04:11:54.317Z,11.87
2017-12-14T04:14:22.543Z,7.13
2017-12-14T04:16:50.010Z,7.53
2017-12-14T04:19:17.474Z,4.27
2017-12-14T04:21:45.060Z,2.83
2017-12-14T04:24:13.298Z,3.17
2017-12-14T04:26:40.756Z,8.83
2017-12-14T04:29:08.244Z,3.90
2017-12-14T04:31:35.691Z,2.80
2017-12-14T04:34:03.149Z,3.30
2017-12-14T04:36:31.875Z,2.50
2017-12-14T04:38:59.318Z,3.47
2017-12-14T04:41:27.555Z,1.50
2017-12-14T04:43:55.011Z,2.33
2017-12-14T04:46:22.493Z,1.63
2017-12-14T04:48:50.705Z,3.90
2017-12-14T04:51:18.194Z,1.80
2017-12-14T04:53:45.653Z,1.97
2017-12-14T04:56:13.143Z,3.63
2017-12-14T04:58:41.451Z,1.87
2017-12-14T05:01:08.907Z,2.40
2017-12-14T05:03:36.375Z,2.33
2017-12-14T05:06:03.838Z,2.20
2017-12-14T05:08:31.310Z,2.17
2017-12-14T05:10:58.763Z,2.63
2017-12-14T05:13:26.967Z,4.23
2017-12-14T05:15:54.419Z,2.87
2017-12-14T05:18:22.669Z,2.97
2017-12-14T05:20:50.127Z,3.30
2017-12-14T05:23:17.704Z,3.20
2017-12-14T05:25:45.154Z,4.00
2017-12-14T05:28:12.627Z,4.63
2017-12-14T05:30:40.846Z,3.40
2017-12-14T05:33:08.316Z,6.23
2017-12-14T05:35:35.786Z,7.97
2017-12-14T05:38:03.250Z,5.00
2017-12-14T05:40:30.729Z,5.90
2017-12-14T05:42:58.989Z,4.83
2017-12-14T05:45:26.486Z,9.63
2017-12-14T05:47:53.940Z,4.67
2017-12-14T05:50:21.406Z,4.93
2017-12-14T05:52:48.863Z,6.40
2017-12-14T05:55:16.343Z,9.33
2017-12-14T05:57:43.825Z,7.73
2017-12-14T06:00:11.296Z,6.30
2017-12-14T06:02:39.519Z,12.17
2017-12-14T06:05:06.979Z,10.10
2017-12-14T06:07:34.527Z,8.63
2017-12-14T06:10:01.994Z,17.23
2017-12-14T06:12:29.459Z,13.63
2017-12-14T06:14:56.910Z,9.00
2017-12-14T06:17:24.398Z,12.70
2017-12-14T06:19:51.866Z,6.87
2017-12-14T06:22:20.096Z,10.97
2017-12-14T06:24:47.561Z,8.27
2017-12-14T06:27:15.046Z,15.90
2017-12-14T06:29:42.515Z,7.70
2017-12-14T06:32:10.752Z,11.07
2017-12-14T06:34:38.231Z,10.33
2017-12-14T06:37:05.689Z,8.53
2017-12-14T06:39:33.938Z,13.10
2017-12-14T06:42:01.424Z,8.27
2017-12-14T06:44:29.635Z,9.90
2017-12-14T06:46:57.130Z,12.20
2017-12-14T06:49:24.611Z,11.83
2017-12-14T06:51:52.066Z,13.50
2017-12-14T06:54:19.538Z,14.90
2017-12-14T06:56:47.766Z,15.47
2017-12-14T06:59:15.238Z,10.23
2017-12-14T07:01:42.699Z,10.27
2017-12-14T07:04:10.159Z,13.93
2017-12-14T07:06:37.634Z,16.73
2017-12-14T07:09:05.865Z,14.90
2017-12-14T07:11:33.330Z,11.07
2017-12-14T07:14:00.822Z,16.83
2017-12-14T07:16:29.043Z,6.77
2017-12-14T07:18:56.554Z,9.87
2017-12-14T07:21:24.034Z,19.77
2017-12-14T07:23:51.506Z,16.43
2017-12-14T07:26:18.978Z,8.77
2017-12-14T07:28:46.448Z,8.47
2017-12-14T07:31:13.915Z,14.33
2017-12-14T07:33:41.393Z,8.33
2017-12-14T07:36:08.858Z,16.23
2017-12-14T07:38:37.099Z,17.40
2017-12-14T07:41:04.582Z,11.20
2017-12-14T07:43:32.811Z,11.10
2017-12-14T07:49:17.555Z,14.70
2017-12-14T07:51:45.038Z,12.73
2017-12-14T07:54:12.499Z,8.52
2017-12-14T07:56:39.979Z,11.50
2017-12-14T07:59:07.438Z,10.70
2017-12-14T08:01:34.907Z,5.37
2017-12-14T08:04:02.383Z,15.37
2017-12-14T08:06:30.606Z,13.40
2017-12-14T08:08:58.075Z,13.70
2017-12-14T08:11:25.564Z,9.47
2017-12-14T08:13:53.803Z,13.60
2017-12-14T08:16:21.262Z,9.60
2017-12-14T08:18:50.503Z,7.00
2017-12-14T08:21:18.769Z,6.33
2017-12-14T08:23:46.987Z,9.30
2017-12-14T08:26:14.465Z,10.00
2017-12-14T08:28:41.932Z,8.30
2017-12-14T08:31:09.407Z,12.13
2017-12-14T08:33:37.640Z,9.73
2017-12-14T08:36:05.095Z,8.57
2017-12-14T08:38:32.567Z,10.60
2017-12-14T08:41:00.045Z,10.50
2017-12-14T08:43:27.530Z,9.90
2017-12-14T08:45:54.995Z,12.07
2017-12-14T08:48:22.462Z,10.80
2017-12-14T08:50:49.948Z,11.20
2017-12-14T08:53:17.442Z,10.83
2017-12-14T08:55:45.683Z,10.67
2017-12-14T08:58:13.145Z,19.77
2017-12-14T09:00:40.623Z,17.90
2017-12-14T09:03:08.875Z,17.03
2017-12-14T09:05:36.342Z,16.57
2017-12-14T09:08:03.803Z,15.33
2017-12-14T09:10:31.310Z,16.93
2017-12-14T09:12:58.774Z,10.47
2017-12-14T09:15:26.232Z,13.87
2017-12-14T09:17:53.718Z,19.87
2017-12-14T09:20:21.195Z,14.50
2017-12-14T09:22:49.426Z,16.60
2017-12-14T09:25:16.903Z,16.23
2017-12-14T09:27:44.376Z,15.77
2017-12-14T09:30:11.839Z,12.43
2017-12-14T09:32:40.081Z,17.30
2017-12-14T09:35:07.570Z,12.80
2017-12-14T09:37:35.822Z,17.00
2017-12-14T09:40:03.312Z,21.17
2017-12-14T09:42:31.555Z,9.60
2017-12-14T09:44:59.015Z,15.50
2017-12-14T09:47:26.494Z,7.90
2017-12-14T09:49:54.743Z,5.57
2017-12-14T09:52:22.220Z,7.13
2017-12-14T09:54:50.454Z,10.10
2017-12-14T09:57:17.940Z,15.67
2017-12-14T09:59:46.174Z,7.57
2017-12-14T10:02:13.642Z,5.80
2017-12-14T10:04:41.111Z,7.20
2017-12-14T10:07:08.578Z,3.13
2017-12-14T10:09:36.051Z,6.70
2017-12-14T10:12:04.290Z,7.43
2017-12-14T10:14:31.759Z,7.33
2017-12-14T10:16:59.263Z,5.90
2017-12-14T10:19:26.723Z,4.23
2017-12-14T10:21:54.195Z,2.37
2017-12-14T10:24:21.675Z,4.70
2017-12-14T10:26:49.114Z,5.47
2017-12-14T10:29:16.606Z,5.40
2017-12-14T10:31:44.075Z,4.10
2017-12-14T10:34:11.518Z,4.73
2017-12-14T10:36:38.995Z,5.80
2017-12-14T10:39:08.135Z,3.30
2017-12-14T10:41:35.587Z,2.97
2017-12-14T10:44:03.056Z,3.13
2017-12-14T10:46:30.571Z,3.23
2017-12-14T10:48:58.803Z,5.60
2017-12-14T10:51:26.278Z,1.63
2017-12-14T10:53:53.755Z,4.57
2017-12-14T10:56:21.983Z,4.43
2017-12-14T10:58:49.479Z,13.93
2017-12-14T11:01:23.479Z,2.67
2017-12-14T11:03:50.944Z,8.60
2017-12-14T11:06:18.416Z,7.33
2017-12-14T11:08:46.643Z,2.33
2017-12-14T11:11:14.122Z,7.20
2017-12-14T11:13:42.365Z,9.03
2017-12-14T11:16:09.830Z,5.80
2017-12-14T11:18:37.299Z,7.90
2017-12-14T11:21:04.786Z,5.57
2017-12-14T11:23:33.030Z,4.43
2017-12-14T11:26:00.503Z,3.20
2017-12-14T11:28:27.947Z,2.87
2017-12-14T11:30:55.439Z,5.23
2017-12-14T11:33:22.902Z,4.77
2017-12-14T11:35:50.422Z,6.43
2017-12-14T11:38:17.895Z,6.50
2017-12-14T11:40:45.359Z,6.60
2017-12-14T11:43:13.587Z,3.37
2017-12-14T11:45:41.071Z,2.73
2017-12-14T11:48:08.550Z,5.40
2017-12-14T11:50:36.010Z,7.40
2017-12-14T11:53:03.484Z,4.83
2017-12-14T11:55:30.967Z,8.97
2017-12-14T11:57:58.437Z,5.80
2017-12-14T12:00:25.903Z,9.90
2017-12-14T12:02:53.366Z,15.03
2017-12-14T12:05:20.837Z,7.37
2017-12-14T12:07:49.091Z,7.00
2017-12-14T12:10:16.568Z,5.03
2017-12-14T12:12:44.800Z,5.07
2017-12-14T12:15:12.263Z,8.47
2017-12-14T12:17:39.746Z,7.67
2017-12-14T12:20:07.970Z,4.27
2017-12-14T12:22:35.434Z,4.40
2017-12-14T12:25:02.907Z,3.93
2017-12-14T12:27:30.418Z,5.00
2017-12-14T12:29:57.879Z,5.27
2017-12-14T12:32:25.343Z,3.53
2017-12-14T12:34:52.807Z,6.83
2017-12-14T12:37:20.264Z,5.43
2017-12-14T12:39:47.732Z,8.10
2017-12-14T12:42:15.214Z,11.97
2017-12-14T12:44:42.676Z,5.10
2017-12-14T12:47:10.151Z,9.40
2017-12-14T12:49:38.376Z,3.60
2017-12-14T12:52:05.876Z,3.67
2017-12-14T12:54:34.115Z,2.60
2017-12-14T12:57:01.584Z,3.73
2017-12-14T12:59:29.914Z,7.03
2017-12-14T13:01:57.383Z,2.13
2017-12-14T13:04:24.860Z,5.57
2017-12-14T13:06:52.338Z,3.40
2017-12-14T13:09:20.567Z,4.10
2017-12-14T13:11:48.035Z,3.03
2017-12-14T13:14:15.517Z,2.87
2017-12-14T13:16:42.974Z,1.10
2017-12-14T13:19:10.439Z,2.93
2017-12-14T13:21:37.952Z,2.10
2017-12-14T13:24:05.412Z,2.60
2017-12-14T13:26:32.896Z,1.90
2017-12-14T13:29:00.347Z,1.50
2017-12-14T13:31:27.826Z,5.07
2017-12-14T13:33:56.088Z,2.10
2017-12-14T13:36:23.620Z,1.80
2017-12-14T13:38:51.095Z,1.10
2017-12-14T13:41:18.571Z,3.97
2017-12-14T13:43:46.038Z,4.03
2017-12-14T13:46:14.299Z,6.40
2017-12-14T13:48:41.759Z,1.70
2017-12-14T13:51:09.219Z,3.87
2017-12-14T13:53:36.695Z,2.83
2017-12-14T13:56:04.915Z,5.37
2017-12-14T13:58:32.560Z,2.00
2017-12-14T14:01:00.850Z,7.33
2017-12-14T14:03:28.314Z,5.00
2017-12-14T14:05:55.800Z,4.73
2017-12-14T14:08:23.307Z,6.00
2017-12-14T14:10:53.291Z,7.97
2017-12-14T14:13:24.066Z,3.30
2017-12-14T14:15:51.920Z,6.37
2017-12-14T14:18:19.423Z,6.00
2017-12-14T14:20:52.835Z,5.37
2017-12-14T14:23:21.087Z,4.30
2017-12-14T14:25:49.314Z,3.60
2017-12-14T14:28:16.799Z,2.73
2017-12-14T14:30:44.271Z,6.03
2017-12-14T14:33:11.767Z,6.20
2017-12-14T14:35:39.998Z,5.03
2017-12-14T14:38:07.476Z,6.97
2017-12-14T14:40:35.019Z,7.97
2017-12-14T14:43:02.562Z,3.93
2017-12-14T14:45:30.077Z,5.43
2017-12-14T14:47:58.306Z,2.30
2017-12-14T14:50:25.796Z,6.13
2017-12-14T14:52:54.027Z,4.40
2017-12-14T14:55:21.510Z,4.43
2017-12-14T14:57:48.960Z,1.80
2017-12-14T15:00:16.426Z,8.87
2017-12-14T15:02:43.910Z,5.80
2017-12-14T15:05:12.230Z,7.00
2017-12-14T15:07:39.702Z,7.23
2017-12-14T15:10:07.182Z,2.50
2017-12-14T15:12:35.838Z,4.00
2017-12-14T15:15:03.300Z,2.20
2017-12-14T15:17:30.774Z,7.30
2017-12-14T15:19:59.038Z,3.93
2017-12-14T15:22:26.494Z,3.70
2017-12-14T15:24:54.003Z,5.63
2017-12-14T15:27:21.470Z,2.80
2017-12-14T15:29:48.950Z,3.63
2017-12-14T15:32:16.398Z,2.40
2017-12-14T15:34:43.887Z,3.33
2017-12-14T15:37:11.479Z,4.57
2017-12-14T15:39:38.951Z,6.03
2017-12-14T15:42:06.414Z,3.67
2017-12-14T15:44:33.908Z,4.43
2017-12-14T15:47:01.370Z,3.77
2017-12-14T15:49:28.875Z,8.83
2017-12-14T15:51:56.338Z,3.20
2017-12-14T15:54:23.854Z,2.70
2017-12-14T15:56:52.098Z,9.60
2017-12-14T15:59:19.587Z,7.30
2017-12-14T16:01:47.834Z,1.60
2017-12-14T16:04:15.320Z,6.50
2017-12-14T16:06:43.538Z,1.90
2017-12-14T16:09:11.042Z,7.17
2017-12-14T16:11:38.487Z,2.07
2017-12-14T16:14:05.968Z,1.77
2017-12-14T16:16:34.198Z,1.77
2017-12-14T16:19:01.663Z,2.10
2017-12-14T16:21:29.188Z,3.13
2017-12-14T16:23:56.658Z,4.70
2017-12-14T16:26:24.358Z,2.17
2017-12-14T16:28:52.583Z,1.93
2017-12-14T16:31:20.068Z,1.53
2017-12-14T16:33:47.574Z,4.40
2017-12-14T16:36:15.040Z,1.93
2017-12-14T16:38:42.502Z,3.53
2017-12-14T16:41:09.978Z,2.10
2017-12-14T16:43:37.457Z,3.50
2017-12-14T16:46:04.976Z,4.13
2017-12-14T16:48:32.446Z,4.33
2017-12-14T16:50:59.993Z,4.53
2017-12-14T16:53:27.470Z,2.40
2017-12-14T16:55:54.927Z,5.60
2017-12-14T16:58:22.387Z,3.50
2017-12-14T17:00:49.895Z,1.60
2017-12-14T17:03:17.366Z,2.13
2017-12-14T17:05:44.830Z,4.20
2017-12-14T17:08:12.292Z,3.20
2017-12-14T17:10:39.790Z,5.77
2017-12-14T17:13:08.762Z,5.00
2017-12-14T17:15:36.279Z,5.37
2017-12-14T17:18:03.785Z,3.77
2017-12-14T17:20:31.223Z,10.03
2017-12-14T17:22:58.699Z,6.77
2017-12-14T17:25:26.172Z,4.37
2017-12-14T17:27:53.655Z,4.17
2017-12-14T17:30:21.867Z,3.10
2017-12-14T17:32:49.326Z,3.90
2017-12-14T17:35:16.794Z,6.83
2017-12-14T17:37:44.264Z,3.83
2017-12-14T17:40:11.750Z,7.63
2017-12-14T17:42:39.219Z,4.00
2017-12-14T17:45:06.703Z,7.37
2017-12-14T17:47:34.166Z,6.27
2017-12-14T17:50:01.666Z,6.40
2017-12-14T17:52:29.142Z,2.97
2017-12-14T17:54:57.378Z,4.60
2017-12-14T17:57:24.854Z,3.80
2017-12-14T17:59:53.095Z,10.23
2017-12-14T18:02:20.564Z,3.70
2017-12-14T18:04:48.053Z,5.70
2017-12-14T18:07:16.269Z,7.07
2017-12-14T18:09:43.757Z,8.80
2017-12-14T18:12:11.243Z,5.77
2017-12-14T18:14:39.478Z,9.03
2017-12-14T18:17:06.970Z,7.83
2017-12-14T18:19:35.199Z,5.10
2017-12-14T18:22:02.694Z,5.97
2017-12-14T18:24:30.928Z,9.13
2017-12-14T18:26:58.384Z,17.63
2017-12-14T18:29:25.858Z,13.43
2017-12-14T18:31:53.348Z,14.33
2017-12-14T18:34:21.584Z,10.23
2017-12-14T18:36:49.037Z,13.83
2017-12-14T18:39:16.530Z,14.43
2017-12-14T18:41:44.785Z,12.00
2017-12-14T18:44:12.255Z,14.80
2017-12-14T18:46:40.471Z,11.63
2017-12-14T18:49:07.951Z,10.00
2017-12-14T18:51:35.426Z,11.00
2017-12-14T18:54:02.904Z,13.27
2017-12-14T18:56:31.162Z,12.10
2017-12-14T18:58:58.650Z,15.80
2017-12-14T19:01:26.871Z,10.40
2017-12-14T19:03:54.347Z,21.53
2017-12-14T19:06:21.840Z,14.93
2017-12-14T19:08:49.303Z,12.90
2017-12-14T19:11:16.779Z,12.40
2017-12-14T19:13:44.271Z,10.03
2017-12-14T19:16:11.752Z,15.73
2017-12-14T19:18:39.993Z,14.40
2017-12-14T19:21:07.458Z,11.73
2017-12-14T19:23:34.979Z,13.13
2017-12-14T19:26:02.435Z,12.73
2017-12-14T19:28:29.939Z,13.03
2017-12-14T19:30:57.400Z,11.17
2017-12-14T19:33:25.635Z,12.83
2017-12-14T19:35:53.112Z,15.30
2017-12-14T19:38:20.587Z,10.33
2017-12-14T19:40:48.836Z,19.40
2017-12-14T19:43:16.302Z,16.10
2017-12-14T19:45:43.767Z,13.40
2017-12-14T19:48:11.235Z,13.83
2017-12-14T19:50:39.484Z,21.23
2017-12-14T19:53:08.463Z,24.80
2017-12-14T19:55:35.952Z,15.73
2017-12-14T19:58:04.294Z,13.47
2017-12-14T20:00:31.797Z,7.13
2017-12-14T20:03:00.023Z,10.07
2017-12-14T20:05:27.484Z,11.27
2017-12-14T20:07:54.958Z,5.10
2017-12-14T20:10:22.431Z,6.50
2017-12-14T20:12:49.918Z,6.37
2017-12-14T20:15:17.380Z,3.50
2017-12-14T20:17:44.870Z,2.40
2017-12-14T20:20:12.351Z,5.67
2017-12-14T20:22:39.807Z,5.33
2017-12-14T20:25:07.275Z,8.07
2017-12-14T20:27:35.513Z,3.90
2017-12-14T20:30:02.979Z,2.87
2017-12-14T20:32:30.483Z,4.67
2017-12-14T20:34:58.724Z,3.47
2017-12-14T20:37:26.184Z,4.17
2017-12-14T20:39:53.653Z,5.20
2017-12-14T20:42:21.149Z,5.87
2017-12-14T20:44:48.597Z,3.53
2017-12-14T20:47:16.066Z,4.23
2017-12-14T20:49:43.555Z,5.73
2017-12-14T20:52:13.351Z,4.43
2017-12-14T20:54:40.807Z,6.00
2017-12-14T20:57:08.297Z,4.90
2017-12-14T20:59:35.752Z,5.90
2017-12-14T21:02:03.258Z,5.27
2017-12-14T21:04:30.730Z,5.77
2017-12-14T21:06:58.197Z,4.93
2017-12-14T21:09:25.671Z,4.17
2017-12-14T21:11:53.129Z,3.70
2017-12-14T21:14:20.600Z,2.50
2017-12-14T21:16:48.822Z,5.20
2017-12-14T21:19:16.296Z,5.87
2017-12-14T21:21:43.763Z,3.70
2017-12-14T21:24:11.237Z,1.77
2017-12-14T21:26:39.471Z,3.23
2017-12-14T21:29:06.946Z,1.90
2017-12-14T21:31:34.394Z,1.67
2017-12-14T21:34:01.887Z,5.50
2017-12-14T21:36:30.127Z,3.20
2017-12-14T21:38:57.583Z,4.90
2017-12-14T21:41:25.084Z,2.23
2017-12-14T21:43:53.316Z,5.40
2017-12-14T21:46:20.779Z,6.10
2017-12-14T21:48:48.246Z,5.20
2017-12-14T21:51:15.807Z,18.47
2017-12-14T21:53:43.262Z,15.03
2017-12-14T21:56:10.737Z,5.53
2017-12-14T21:58:39.096Z,9.80
2017-12-14T22:01:06.611Z,21.00
2017-12-14T22:03:34.087Z,16.53
2017-12-14T22:06:01.554Z,6.00
2017-12-14T22:08:29.035Z,13.57
2017-12-14T22:10:56.489Z,20.57
2017-12-14T22:13:24.758Z,23.93
2017-12-14T22:15:53.011Z,6.10
2017-12-14T22:18:20.487Z,4.70
2017-12-14T22:20:47.951Z,5.00
2017-12-14T22:23:15.510Z,13.70
2017-12-14T22:25:42.994Z,17.93
2017-12-14T22:28:11.239Z,11.03
2017-12-14T22:30:38.700Z,10.50
2017-12-14T22:33:06.179Z,9.73
2017-12-14T22:35:33.651Z,14.00
2017-12-14T22:38:01.127Z,13.30
2017-12-14T22:40:28.603Z,8.27
2017-12-14T22:42:56.964Z,5.33
2017-12-14T22:45:24.438Z,6.53
2017-12-14T22:47:51.895Z,5.73
2017-12-14T22:50:19.376Z,5.20
2017-12-14T22:52:52.781Z,6.00
2017-12-14T22:55:21.050Z,10.27
2017-12-14T22:57:48.497Z,4.20
2017-12-14T23:00:16.063Z,7.73
2017-12-14T23:02:44.323Z,5.90
2017-12-14T23:05:11.798Z,6.37
2017-12-14T23:07:40.085Z,8.67
2017-12-14T23:10:08.306Z,6.13
2017-12-14T23:12:35.793Z,6.30
2017-12-14T23:15:03.266Z,6.00
2017-12-14T23:17:31.502Z,6.23
2017-12-14T23:19:58.975Z,7.23
2017-12-14T23:22:26.467Z,7.53
2017-12-14T23:24:53.931Z,10.77
2017-12-14T23:27:21.388Z,7.70
2017-12-14T23:29:48.876Z,8.90
2017-12-14T23:32:16.414Z,9.67
2017-12-14T23:34:43.882Z,8.50
2017-12-14T23:37:11.367Z,9.37
2017-12-14T23:39:38.855Z,10.30
2017-12-14T23:42:07.075Z,10.67
2017-12-14T23:44:34.563Z,11.70
2017-12-14T23:47:02.011Z,11.73
2017-12-14T23:49:29.496Z,11.07
2017-12-14T23:51:57.743Z,10.23
2017-12-14T23:54:25.237Z,8.40
2017-12-14T23:56:53.684Z,13.33
2017-12-14T23:59:21.165Z,13.20
